Time;durP1;ratioP1;P1;durP2;ratioP2;P2;SDS_P1;SDS_P2;PMS_P1;PMS_P2;Temp;Humidity;BMP_temperature;BMP_pressure;BME280_temperature;BME280_humidity;BME280_pressure;Samples;Min_cycle;Max_cycle;Signal;HPM_P1;HPM_P2
2023/02/03 00:00:00;;;;;;;16.45;4.32;;;;;;;8.41;100.00;102364.03;4701366;30;20121;-62
2023/02/03 00:02:27;;;;;;;14.50;3.85;;;;;;;8.43;100.00;102367.38;4689913;30;20474;-64
2023/02/03 00:04:55;;;;;;;14.93;4.15;;;;;;;8.41;100.00;102369.47;4716510;30;20049;-63
2023/02/03 00:07:23;;;;;;;18.85;4.30;;;;;;;8.42;100.00;102354.88;4716293;30;20060;-61
2023/02/03 00:09:50;;;;;;;14.98;4.50;;;;;;;8.41;100.00;102361.31;4703469;30;20061;-62
2023/02/03 00:12:18;;;;;;;13.40;3.95;;;;;;;8.41;100.00;102353.19;4694444;30;20065;-64
2023/02/03 00:14:46;;;;;;;15.13;3.97;;;;;;;8.39;100.00;102352.53;4686346;30;20061;-62
2023/02/03 00:17:14;;;;;;;15.00;4.50;;;;;;;8.39;100.00;102357.13;4698504;30;20076;-62
2023/02/03 00:19:41;;;;;;;10.77;3.65;;;;;;;8.38;100.00;102383.47;4685699;30;20052;-62
2023/02/03 00:22:09;;;;;;;15.32;4.03;;;;;;;8.39;100.00;102384.28;4685881;30;20050;-63
2023/02/03 00:24:37;;;;;;;19.73;5.13;;;;;;;8.39;100.00;102387.00;4685467;30;20061;-62
2023/02/03 00:27:04;;;;;;;15.18;4.20;;;;;;;8.39;100.00;102392.44;4671137;30;20406;-62
2023/02/03 00:29:32;;;;;;;16.73;4.60;;;;;;;8.40;100.00;102403.13;4698408;30;20061;-62
2023/02/03 00:32:00;;;;;;;16.13;4.18;;;;;;;8.39;100.00;102406.84;4699443;30;20137;-62
2023/02/03 00:34:29;;;;;;;15.25;4.20;;;;;;;8.39;100.00;102398.69;4668261;30;20058;-62
2023/02/03 00:36:57;;;;;;;13.35;4.05;;;;;;;8.39;100.00;102404.13;4669727;30;20054;-62
2023/02/03 00:39:24;;;;;;;17.80;4.45;;;;;;;8.42;100.00;102392.88;4684965;30;20065;-63
2023/02/03 00:41:52;;;;;;;18.25;4.28;;;;;;;8.41;100.00;102393.09;4684051;30;20420;-61
2023/02/03 00:44:19;;;;;;;12.77;4.20;;;;;;;8.39;100.00;102404.13;4669227;30;20057;-63
2023/02/03 00:46:47;;;;;;;16.27;4.20;;;;;;;8.39;100.00;102404.13;4683997;30;20081;-63
2023/02/03 00:49:15;;;;;;;18.40;4.43;;;;;;;8.40;100.00;102397.69;4695974;30;20062;-63
2023/02/03 00:51:42;;;;;;;13.95;4.43;;;;;;;8.39;100.00;102406.84;4717908;30;20088;-62
2023/02/03 00:54:10;;;;;;;19.48;4.47;;;;;;;8.40;100.00;102397.69;4703607;30;20448;-62
2023/02/03 00:56:38;;;;;;;14.23;4.10;;;;;;;8.39;100.00;102415.00;4704068;30;20056;-60
2023/02/03 00:59:06;;;;;;;15.60;4.45;;;;;;;8.40;100.00;102405.03;4715414;30;20050;-63
2023/02/03 01:01:34;;;;;;;15.25;4.07;;;;;;;8.39;100.00;102398.69;4701123;30;20059;-62
2023/02/03 01:04:02;;;;;;;14.13;3.88;;;;;;;8.41;100.00;102406.66;4689000;30;20061;-62
2023/02/03 01:06:30;;;;;;;15.75;3.90;;;;;;;8.42;100.00;102422.75;4719607;30;20053;-62
2023/02/03 01:08:58;;;;;;;15.05;4.15;;;;;;;8.42;100.00;102417.34;4719523;30;20084;-63
2023/02/03 01:11:27;;;;;;;17.60;4.03;;;;;;;8.41;100.00;102423.78;4718184;30;20064;-63
2023/02/03 01:13:58;;;;;;;15.23;4.57;;;;;;;8.44;100.00;102422.53;4718413;30;20075;-62
2023/02/03 01:16:26;;;;;;;15.13;4.35;;;;;;;8.44;100.00;102425.25;4716929;30;20067;-64
2023/02/03 01:18:56;;;;;;;18.73;4.15;;;;;;;8.43;100.00;102419.00;4699185;30;20057;-63
2023/02/03 01:21:25;;;;;;;19.27;4.43;;;;;;;8.46;100.00;102404.97;4686414;30;20054;-63
2023/02/03 01:23:53;;;;;;;17.65;4.18;;;;;;;8.46;100.00;102410.41;4700668;30;20065;-62
2023/02/03 01:26:22;;;;;;;14.10;3.97;;;;;;;8.46;100.00;102417.72;4709792;30;20049;-62
2023/02/03 01:29:00;;;;;;;16.80;4.00;;;;;;;8.47;100.00;102401.22;4701726;30;20049;-63
2023/02/03 01:31:30;;;;;;;13.77;3.80;;;;;;;8.47;100.00;102393.06;4703982;30;20057;-63
2023/02/03 01:33:59;;;;;;;14.70;3.88;;;;;;;8.50;100.00;102391.81;4707578;30;20057;-63
2023/02/03 01:36:29;;;;;;;17.35;3.90;;;;;;;8.47;100.00;102390.34;4721567;30;20061;-63
2023/02/03 01:38:57;;;;;;;13.25;3.88;;;;;;;8.45;100.00;102397.06;4722540;30;20075;-63
2023/02/03 01:41:27;;;;;;;14.02;3.70;;;;;;;8.46;100.00;102404.16;4721630;30;20057;-63
2023/02/03 01:43:56;;;;;;;16.58;3.65;;;;;;;8.47;100.00;102395.78;4706771;30;20151;-63
2023/02/03 01:46:37;;;;;;;14.38;3.85;;;;;;;8.46;100.00;102396.81;4720970;30;20049;-63
2023/02/03 01:49:08;;;;;;;13.80;3.80;;;;;;;8.48;100.00;102388.47;4703901;30;20076;-62
2023/02/03 01:51:38;;;;;;;16.20;3.80;;;;;;;8.47;100.00;102379.50;4706370;30;20061;-63
2023/02/03 01:54:10;;;;;;;14.88;3.90;;;;;;;8.48;100.00;102386.56;4661065;30;20062;-64
2023/02/03 01:56:41;;;;;;;14.30;3.70;;;;;;;8.47;100.00;102376.78;4679751;30;20049;-63
2023/02/03 01:59:09;;;;;;;12.43;3.45;;;;;;;8.49;100.00;102377.41;4717293;30;20049;-62
2023/02/03 02:01:38;;;;;;;11.15;3.35;;;;;;;8.48;100.00;102364.84;4696287;30;20059;-62
2023/02/03 02:04:08;;;;;;;12.70;3.60;;;;;;;8.48;100.00;102345.00;4684506;30;20058;-64
2023/02/03 02:06:36;;;;;;;11.13;3.50;;;;;;;8.49;100.00;102342.09;4685206;30;20493;-63
2023/02/03 02:09:04;;;;;;;11.18;2.83;;;;;;;8.51;100.00;102337.28;4697486;30;20412;-62
2023/02/03 02:11:33;;;;;;;9.77;2.92;;;;;;;8.49;100.00;102338.50;4692162;30;20519;-65
2023/02/03 02:14:02;;;;;;;12.98;3.40;;;;;;;8.47;100.00;102352.31;4683106;30;20496;-63
2023/02/03 02:16:33;;;;;;;16.70;3.70;;;;;;;8.45;100.00;102357.13;4674663;30;20443;-62
2023/02/03 02:19:34;;;;;;;14.10;3.40;;;;;;;8.46;100.00;102360.69;4699697;30;20122;-63
2023/02/03 02:22:17;;;;;;;11.15;3.38;;;;;;;8.46;100.00;102364.22;4681298;30;20054;-64
2023/02/03 02:25:15;;;;;;;14.60;3.28;;;;;;;8.49;100.00;102352.94;4683725;30;20081;-63
2023/02/03 02:28:01;;;;;;;12.48;3.08;;;;;;;8.47;100.00;102355.03;4682277;30;20104;-63
2023/02/03 02:30:38;;;;;;;11.90;3.22;;;;;;;8.47;100.00;102355.03;4683326;30;20061;-62
2023/02/03 02:33:10;;;;;;;;;;;;;;;8.48;100.00;102350.44;4668837;30;20506;-64
2023/02/03 02:35:39;;;;;;;15.25;3.75;;;;;;;8.48;100.00;102356.69;4683589;30;20018;-63
2023/02/03 02:38:38;;;;;;;14.25;3.63;;;;;;;8.49;100.00;102361.09;4695734;30;20054;-62
2023/02/03 02:41:18;;;;;;;12.40;3.75;;;;;;;8.49;100.00;102358.38;4696527;30;20062;-62
2023/02/03 02:44:08;;;;;;;10.10;3.25;;;;;;;8.49;100.00;102357.53;4693432;30;20064;-63
2023/02/03 02:46:46;;;;;;;13.13;3.83;;;;;;;8.48;100.00;102348.56;4671512;30;20451;-63
2023/02/03 02:49:36;;;;;;;11.88;3.08;;;;;;;8.47;100.00;102344.19;4691416;30;20061;-64
2023/02/03 02:52:05;;;;;;;8.95;2.95;;;;;;;8.51;100.00;102342.72;4716980;30;20049;-63
2023/02/03 02:54:35;;;;;;;13.75;3.30;;;;;;;8.51;100.00;102337.28;4702538;30;20131;-63
2023/02/03 02:57:05;;;;;;;16.77;3.65;;;;;;;8.51;100.00;102347.28;4713767;30;20474;-62
2023/02/03 02:59:33;;;;;;;13.20;3.45;;;;;;;8.49;100.00;102350.22;4697253;30;20488;-64
2023/02/03 03:02:01;;;;;;;12.40;3.70;;;;;;;8.48;100.00;102353.97;4713520;30;20573;-65
2023/02/03 03:04:30;;;;;;;10.70;3.17;;;;;;;8.48;100.00;102348.56;4700523;30;20136;-63
2023/02/03 03:07:23;;;;;;;11.05;3.72;;;;;;;8.48;100.00;102358.59;4695262;30;20048;-62
2023/02/03 03:09:56;;;;;;;11.93;3.42;;;;;;;8.48;100.00;102359.41;4697968;30;20056;-62
2023/02/03 03:12:30;;;;;;;12.45;3.15;;;;;;;8.48;100.00;102359.41;4714557;30;20426;-61
2023/02/03 03:15:02;;;;;;;12.23;2.80;;;;;;;8.50;100.00;102345.63;4701997;30;20061;-63
2023/02/03 03:17:35;;;;;;;10.88;3.03;;;;;;;8.52;100.00;102332.66;4702003;30;20140;-62
2023/02/03 03:20:06;;;;;;;9.55;2.85;;;;;;;8.55;100.00;102309.66;4714855;30;20049;-64
2023/02/03 03:22:38;;;;;;;14.40;3.15;;;;;;;8.53;100.00;102297.13;4687519;30;20099;-62
2023/02/03 03:25:16;;;;;;;12.15;3.30;;;;;;;8.57;100.00;102313.00;4717899;30;20471;-63
2023/02/03 03:27:55;;;;;;;11.93;3.30;;;;;;;8.57;100.00;102313.81;4727515;30;20059;-61
2023/02/03 03:30:26;;;;;;;13.02;3.00;;;;;;;8.56;100.00;102301.28;4726800;30;20143;-63
2023/02/03 03:32:54;;;;;;;13.48;3.28;;;;;;;8.55;100.00;102309.66;4724190;30;20057;-62
2023/02/03 03:35:23;;;;;;;11.40;2.95;;;;;;;8.56;100.00;102295.84;4713771;30;20129;-61
2023/02/03 03:38:02;;;;;;;12.23;2.95;;;;;;;8.55;100.00;102293.38;4722021;30;20053;-62
2023/02/03 03:40:34;;;;;;;12.15;2.78;;;;;;;8.58;100.00;102298.34;4730942;30;20057;-61
2023/02/03 03:43:07;;;;;;;9.15;2.63;;;;;;;8.57;100.00;102313.00;4720666;30;20077;-61
2023/02/03 03:46:00;;;;;;;10.48;3.00;;;;;;;8.58;100.00;102323.63;4719615;30;20053;-62
2023/02/03 03:48:32;;;;;;;9.38;3.00;;;;;;;8.58;100.00;102331.78;4716576;30;20059;-62
2023/02/03 03:51:07;;;;;;;10.68;2.95;;;;;;;8.59;100.00;102332.63;4716303;30;20507;-62
2023/02/03 03:53:37;;;;;;;12.38;2.97;;;;;;;8.60;100.00;102345.16;4712857;30;20046;-61
2023/02/03 03:56:07;;;;;;;11.02;2.92;;;;;;;8.60;100.00;102348.69;4699416;30;20174;-65
2023/02/03 03:58:36;;;;;;;11.00;2.85;;;;;;;8.60;100.00;102340.56;4699006;30;20053;-63
2023/02/03 04:01:06;;;;;;;8.73;2.47;;;;;;;8.63;100.00;102334.69;4713501;30;20057;-62
2023/02/03 04:03:40;;;;;;;9.13;2.60;;;;;;;8.64;100.00;102344.50;4698447;30;20057;-65
2023/02/03 04:06:07;;;;;;;9.70;2.88;;;;;;;8.65;100.00;102348.88;4701514;30;20049;-61
2023/02/03 04:08:35;;;;;;;8.07;2.72;;;;;;;8.66;100.00;102350.56;4717233;30;20067;-62
2023/02/03 04:11:02;;;;;;;11.68;2.70;;;;;;;8.67;100.00;102343.25;4719593;30;20053;-62
2023/02/03 04:13:31;;;;;;;8.63;2.85;;;;;;;8.65;100.00;102348.88;4702910;30;20089;-62
2023/02/03 04:15:58;;;;;;;7.88;2.72;;;;;;;8.66;100.00;102371.44;4719986;30;20534;-62
2023/02/03 04:18:26;;;;;;;9.13;2.90;;;;;;;8.67;100.00;102368.53;4704184;30;20057;-62
2023/02/03 04:20:53;;;;;;;11.88;3.25;;;;;;;8.67;100.00;102352.22;4719081;30;20053;-62
2023/02/03 04:23:21;;;;;;;12.85;3.15;;;;;;;8.69;100.00;102361.00;4717484;30;20068;-63
2023/02/03 04:25:49;;;;;;;12.90;3.67;;;;;;;8.73;100.00;102354.06;4701327;30;20057;-63
2023/02/03 04:28:16;;;;;;;9.32;2.55;;;;;;;8.71;100.00;102364.31;4702969;30;20079;-62
2023/02/03 04:30:44;;;;;;;11.93;3.05;;;;;;;8.71;100.00;102377.09;4717084;30;20084;-61
2023/02/03 04:33:12;;;;;;;9.57;2.70;;;;;;;8.69;100.00;102371.84;4720257;30;20049;-65
2023/02/03 04:35:39;;;;;;;13.73;3.13;;;;;;;8.69;100.00;102360.16;4719674;30;20053;-62
2023/02/03 04:38:07;;;;;;;11.20;3.10;;;;;;;8.72;100.00;102370.59;4704713;30;20056;-64
2023/02/03 04:40:35;;;;;;;12.27;2.70;;;;;;;8.73;100.00;102366.81;4708833;30;20053;-65
2023/02/03 04:43:06;;;;;;;10.45;2.53;;;;;;;8.72;100.00;102365.16;4731296;30;20067;-64
2023/02/03 04:45:34;;;;;;;11.00;2.78;;;;;;;8.72;100.00;102351.56;4726091;30;20058;-63
2023/02/03 04:48:03;;;;;;;9.63;2.97;;;;;;;8.73;100.00;102355.94;4730323;30;20057;-63
2023/02/03 04:50:31;;;;;;;8.07;2.63;;;;;;;8.73;100.00;102340.50;4727859;30;20065;-62
2023/02/03 04:52:59;;;;;;;9.60;2.50;;;;;;;8.75;100.00;102342.97;4730556;30;20061;-63
2023/02/03 04:55:28;;;;;;;12.70;3.28;;;;;;;8.74;100.00;102325.00;4719481;30;20489;-61
2023/02/03 04:57:56;;;;;;;9.35;2.75;;;;;;;8.74;100.00;102330.44;4719453;30;20439;-62
2023/02/03 05:00:25;;;;;;;8.75;2.72;;;;;;;8.76;100.00;102317.47;4718419;30;20056;-62
2023/02/03 05:02:53;;;;;;;11.93;2.67;;;;;;;8.76;100.00;102313.94;4702017;30;20057;-61
2023/02/03 05:05:21;;;;;;;8.32;2.72;;;;;;;8.76;100.00;102317.47;4717633;30;20091;-62
2023/02/03 05:07:49;;;;;;;9.75;2.80;;;;;;;8.78;100.00;102315.38;4716382;30;20056;-62
2023/02/03 05:10:16;;;;;;;11.18;2.88;;;;;;;8.76;100.00;102333.78;4702161;30;20107;-62
2023/02/03 05:12:44;;;;;;;9.27;3.22;;;;;;;8.77;100.00;102334.59;4718231;30;20144;-61
2023/02/03 05:15:12;;;;;;;10.88;3.03;;;;;;;8.78;100.00;102328.97;4719143;30;20462;-65
2023/02/03 05:17:40;;;;;;;7.20;2.50;;;;;;;8.78;100.00;102337.13;4717587;30;20143;-63
2023/02/03 05:20:08;;;;;;;11.05;2.88;;;;;;;8.79;100.00;102337.94;4718611;30;20071;-63
2023/02/03 05:22:36;;;;;;;8.25;2.78;;;;;;;8.78;100.00;102338.97;4718165;30;20061;-61
2023/02/03 05:25:04;;;;;;;9.50;2.72;;;;;;;8.78;100.00;102331.69;4717812;30;20108;-64
2023/02/03 05:27:32;;;;;;;8.05;2.80;;;;;;;8.78;100.00;102330.81;4714051;30;20128;-63
2023/02/03 05:29:59;;;;;;;10.52;2.75;;;;;;;8.78;100.00;102353.44;4713577;30;20061;-63
2023/02/03 05:32:27;;;;;;;8.10;2.60;;;;;;;8.78;100.00;102337.13;4718476;30;20492;-64
2023/02/03 05:34:55;;;;;;;10.50;2.90;;;;;;;8.79;100.00;102341.50;4719156;30;20064;-64
2023/02/03 05:37:23;;;;;;;11.68;3.40;;;;;;;8.79;100.00;102352.34;4718517;30;20478;-63
2023/02/03 05:39:51;;;;;;;12.05;3.25;;;;;;;8.79;100.00;102338.78;4715708;30;20048;-63
2023/02/03 05:42:18;;;;;;;9.07;3.08;;;;;;;8.79;100.00;102346.94;4716956;30;20056;-63
2023/02/03 05:44:46;;;;;;;8.35;2.80;;;;;;;8.79;100.00;102344.22;4718250;30;20053;-62
2023/02/03 05:47:14;;;;;;;11.45;3.28;;;;;;;8.82;100.00;102338.31;4719271;30;20068;-63
2023/02/03 05:49:41;;;;;;;15.82;3.78;;;;;;;8.79;100.00;102349.66;4717835;30;20495;-62
2023/02/03 05:52:09;;;;;;;10.82;3.10;;;;;;;8.78;100.00;102347.13;4703451;30;20049;-63
2023/02/03 05:54:37;;;;;;;10.60;3.05;;;;;;;8.76;100.00;102347.38;4689315;30;20064;-66
2023/02/03 05:57:05;;;;;;;13.45;3.22;;;;;;;8.76;100.00;102360.97;4725896;30;20056;-63
2023/02/03 05:59:43;;;;;;;10.67;3.56;;;;;;;8.78;100.00;102361.59;4378718;30;10000552;-66
2023/02/03 06:02:11;;;;;;;9.27;2.55;;;;;;;8.77;100.00;102357.19;4714125;30;20148;-64
2023/02/03 06:04:39;;;;;;;9.23;2.90;;;;;;;8.77;100.00;102346.31;4714813;30;20068;-65
2023/02/03 06:07:07;;;;;;;9.98;2.88;;;;;;;8.78;100.00;102342.56;4713796;30;20118;-64
2023/02/03 06:09:35;;;;;;;12.32;3.13;;;;;;;8.76;100.00;102344.66;4684643;30;20053;-64
2023/02/03 06:12:03;;;;;;;11.48;2.85;;;;;;;8.78;100.00;102342.56;4712290;30;20448;-65
2023/02/03 06:14:31;;;;;;;11.57;2.85;;;;;;;8.77;100.00;102343.59;4714315;30;20739;-64
2023/02/03 06:16:58;;;;;;;12.07;3.00;;;;;;;8.78;100.00;102348.00;4713751;30;20057;-64
2023/02/03 06:19:27;;;;;;;11.15;3.00;;;;;;;8.80;100.00;102353.19;4699095;30;20053;-65
2023/02/03 06:22:02;;;;;;;9.85;3.00;;;;;;;8.82;100.00;102343.75;4714050;30;20111;-65
2023/02/03 06:24:29;;;;;;;11.30;2.88;;;;;;;8.79;100.00;102338.78;4713217;30;20498;-63
2023/02/03 06:26:57;;;;;;;10.48;2.95;;;;;;;8.78;100.00;102322.66;4713771;30;20644;-65
2023/02/03 06:29:25;;;;;;;10.40;2.97;;;;;;;8.82;100.00;102326.63;4709658;30;20979;-64
2023/02/03 06:31:53;;;;;;;12.10;3.38;;;;;;;8.80;100.00;102336.88;4698956;30;20482;-63
2023/02/03 06:34:21;;;;;;;13.13;3.08;;;;;;;8.79;100.00;102341.50;4713403;30;20056;-63
2023/02/03 06:36:48;;;;;;;10.27;2.78;;;;;;;8.80;100.00;102355.91;4713722;30;20067;-64
2023/02/03 06:39:16;;;;;;;11.18;3.50;;;;;;;8.79;100.00;102348.81;4713121;30;20059;-65
2023/02/03 06:41:44;;;;;;;9.55;3.10;;;;;;;8.78;100.00;102339.84;4696169;30;20061;-65
2023/02/03 06:44:13;;;;;;;10.30;2.80;;;;;;;8.77;100.00;102362.63;4681426;30;20065;-63
2023/02/03 06:46:40;;;;;;;12.95;3.20;;;;;;;8.77;100.00;102357.19;4714170;30;20083;-65
2023/02/03 06:49:09;;;;;;;11.10;3.13;;;;;;;8.77;100.00;102350.91;4712438;30;20394;-64
2023/02/03 06:51:36;;;;;;;10.65;2.90;;;;;;;8.77;100.00;102346.31;4714329;30;20064;-61
2023/02/03 06:54:04;;;;;;;11.43;3.10;;;;;;;8.76;100.00;102355.53;4713172;30;20139;-64
2023/02/03 06:56:32;;;;;;;10.07;3.00;;;;;;;8.75;100.00;102337.53;4709673;30;20061;-63
2023/02/03 06:58:59;;;;;;;13.57;3.28;;;;;;;8.74;100.00;102352.19;4696063;30;20329;-64
2023/02/03 07:01:28;;;;;;;10.52;2.88;;;;;;;8.73;100.00;102356.78;4714048;30;20423;-60
2023/02/03 07:03:57;;;;;;;9.10;3.00;;;;;;;8.76;100.00;102382.69;4714984;30;20138;-65
2023/02/03 07:06:28;;;;;;;12.38;2.97;;;;;;;8.79;100.00;102376.00;4713690;30;20049;-66
2023/02/03 07:08:56;;;;;;;9.63;2.67;;;;;;;8.80;100.00;102372.22;4714452;30;20084;-66
2023/02/03 07:11:26;;;;;;;11.48;2.83;;;;;;;8.81;100.00;102377.44;4714197;30;20057;-64
2023/02/03 07:13:54;;;;;;;10.00;2.97;;;;;;;8.77;100.00;102373.47;4712804;30;20061;-65
2023/02/03 07:16:22;;;;;;;11.80;3.15;;;;;;;8.73;100.00;102388.53;4721264;30;20063;-65
2023/02/03 07:18:49;;;;;;;10.40;3.08;;;;;;;8.73;100.00;102377.69;4732875;30;20053;-64
2023/02/03 07:21:18;;;;;;;14.10;3.30;;;;;;;8.71;100.00;102375.19;4722883;30;20057;-65
2023/02/03 07:23:49;;;;;;;14.20;3.63;;;;;;;8.68;100.00;102381.06;4715850;30;20161;-65
2023/02/03 07:26:17;;;;;;;12.77;3.15;;;;;;;8.67;100.00;102373.94;4728594;30;20064;-64
2023/02/03 07:28:45;;;;;;;12.07;3.20;;;;;;;8.69;100.00;102371.03;4732060;30;20070;-65
2023/02/03 07:31:13;;;;;;;11.40;3.60;;;;;;;8.70;100.00;102375.41;4719128;30;20084;-63
2023/02/03 07:33:41;;;;;;;13.18;3.67;;;;;;;8.70;100.00;102372.69;4716577;30;20052;-63
2023/02/03 07:36:09;;;;;;;12.27;3.83;;;;;;;8.70;100.00;102389.00;4718084;30;20057;-62
2023/02/03 07:38:37;;;;;;;12.88;3.40;;;;;;;8.71;100.00;102379.81;4717717;30;20072;-64
2023/02/03 07:41:05;;;;;;;14.98;4.15;;;;;;;8.71;100.00;102380.63;4718025;30;20065;-64
2023/02/03 07:43:33;;;;;;;14.90;3.72;;;;;;;8.72;100.00;102386.91;4701772;30;20148;-63
2023/02/03 07:46:01;;;;;;;15.27;3.88;;;;;;;8.72;100.00;102376.84;4690650;30;20063;-65
2023/02/03 07:48:28;;;;;;;10.75;3.65;;;;;;;8.73;100.00;102383.13;4719850;30;20057;-64
2023/02/03 07:50:56;;;;;;;13.07;4.28;;;;;;;8.75;100.00;102397.31;4719517;30;20484;-64
2023/02/03 07:53:24;;;;;;;19.80;4.50;;;;;;;8.74;100.00;102403.81;4705347;30;20139;-64
2023/02/03 07:55:51;;;;;;;11.60;2.97;;;;;;;8.75;100.00;102391.88;4691805;30;20067;-63
2023/02/03 07:58:19;;;;;;;16.40;3.90;;;;;;;8.77;100.00;102406.09;4720644;30;20300;-64
2023/02/03 08:00:47;;;;;;;13.95;3.38;;;;;;;8.77;100.00;102406.09;4721678;30;20069;-64
2023/02/03 08:03:15;;;;;;;14.18;3.40;;;;;;;8.78;100.00;102407.78;4691102;30;20063;-64
2023/02/03 08:05:44;;;;;;;15.68;3.70;;;;;;;8.76;100.00;102409.06;4691473;30;20053;-64
2023/02/03 08:08:12;;;;;;;12.73;3.33;;;;;;;8.76;100.00;102415.31;4720217;30;20045;-65
2023/02/03 08:10:39;;;;;;;15.02;4.45;;;;;;;8.73;100.00;102416.59;4704746;30;20057;-63
2023/02/03 08:13:07;;;;;;;14.60;4.47;;;;;;;8.73;100.00;102421.16;4720291;30;20411;-62
2023/02/03 08:15:35;;;;;;;14.68;4.15;;;;;;;8.72;100.00;102419.50;4719564;30;20061;-63
2023/02/03 08:18:03;;;;;;;13.70;3.92;;;;;;;8.71;100.00;102409.69;4718604;30;20060;-63
2023/02/03 08:20:31;;;;;;;13.80;3.75;;;;;;;8.73;100.00;102421.16;4719042;30;20418;-63
2023/02/03 08:22:58;;;;;;;12.25;3.60;;;;;;;8.72;100.00;102408.63;4720484;30;20389;-62
2023/02/03 08:25:26;;;;;;;14.10;3.70;;;;;;;8.73;100.00;102413.00;4719009;30;20057;-64
2023/02/03 08:27:53;;;;;;;10.88;3.58;;;;;;;8.72;100.00;102430.38;4718847;30;20041;-65
2023/02/03 08:30:22;;;;;;;11.63;3.85;;;;;;;8.71;100.00;102424.09;4719211;30;20061;-65
2023/02/03 08:32:49;;;;;;;13.35;3.78;;;;;;;8.82;100.00;102430.72;4705512;30;20060;-69
2023/02/03 08:35:17;;;;;;;14.30;3.63;;;;;;;8.86;100.00;102448.28;4719960;30;20086;-64
2023/02/03 08:37:44;;;;;;;18.15;3.97;;;;;;;8.87;100.00;102438.25;4716083;30;20061;-64
2023/02/03 08:40:12;;;;;;;15.32;4.00;;;;;;;8.86;100.00;102439.31;4709855;30;20064;-65
2023/02/03 08:42:40;;;;;;;13.20;3.67;;;;;;;8.80;100.00;102442.88;4718778;30;20053;-64
2023/02/03 08:45:08;;;;;;;14.93;3.88;;;;;;;8.78;100.00;102440.38;4719210;30;20053;-65
2023/02/03 08:47:36;;;;;;;16.13;3.70;;;;;;;8.78;100.00;102455.84;4710676;30;20487;-65
2023/02/03 08:50:08;;;;;;;13.90;3.75;;;;;;;8.75;100.00;102435.38;4719830;30;20153;-65
2023/02/03 08:52:36;;;;;;;17.23;4.32;;;;;;;8.78;100.00;102444.97;4718881;30;20048;-66
2023/02/03 08:55:04;;;;;;;18.90;4.45;;;;;;;8.77;100.00;102436.00;4716247;30;20057;-64
2023/02/03 08:57:33;;;;;;;16.00;4.07;;;;;;;8.77;100.00;102437.88;4697244;30;20108;-65
2023/02/03 09:00:02;;;;;;;16.83;4.57;;;;;;;8.76;100.00;102442.50;4719933;30;20092;-65
2023/02/03 09:02:30;;;;;;;14.82;4.40;;;;;;;8.75;100.00;102457.09;4718660;30;20053;-65
2023/02/03 09:04:58;;;;;;;14.30;3.53;;;;;;;8.76;100.00;102437.06;4718358;30;20053;-65
2023/02/03 09:07:26;;;;;;;19.70;4.40;;;;;;;8.77;100.00;102441.44;4718809;30;20045;-64
2023/02/03 09:09:53;;;;;;;18.52;4.22;;;;;;;8.77;100.00;102444.13;4704228;30;20067;-65
2023/02/03 09:12:21;;;;;;;16.05;4.25;;;;;;;8.80;100.00;102449.13;4703498;30;20167;-65
2023/02/03 09:14:49;;;;;;;18.55;4.80;;;;;;;8.82;100.00;102451.66;4719495;30;20049;-68
2023/02/03 09:17:17;;;;;;;16.05;3.90;;;;;;;8.86;100.00;102469.19;4719001;30;20068;-65
2023/02/03 09:19:45;;;;;;;15.63;4.15;;;;;;;8.87;100.00;102460.81;4719136;30;20428;-65
2023/02/03 09:22:12;;;;;;;13.35;4.13;;;;;;;8.85;100.00;102468.38;4718968;30;20131;-65
2023/02/03 09:24:40;;;;;;;17.80;4.20;;;;;;;8.83;100.00;102469.66;4719237;30;20474;-63
2023/02/03 09:27:08;;;;;;;16.75;4.03;;;;;;;8.82;100.00;102463.34;4703723;30;20053;-65
2023/02/03 09:29:36;;;;;;;16.15;4.03;;;;;;;8.81;100.00;102482.59;4717884;30;20052;-65
2023/02/03 09:32:07;;;;;;;17.15;4.32;;;;;;;8.82;100.00;102490.53;4703298;30;20503;-65
2023/02/03 09:34:35;;;;;;;16.15;4.15;;;;;;;8.83;100.00;102484.06;4703558;30;20052;-65
2023/02/03 09:37:03;;;;;;;16.75;4.18;;;;;;;8.84;100.00;102485.72;4718754;30;20491;-63
2023/02/03 09:39:31;;;;;;;16.40;4.18;;;;;;;8.84;100.00;102491.16;4719156;30;20100;-63
2023/02/03 09:42:36;;;;;;;16.67;3.90;;;;;;;8.85;100.00;102484.69;4714520;30;20393;-64
2023/02/03 09:45:09;;;;;;;13.30;3.60;;;;;;;8.86;100.00;102480.06;4698793;30;20061;-65
2023/02/03 09:47:40;;;;;;;16.08;4.28;;;;;;;8.85;100.00;102479.25;4700521;30;20145;-63
2023/02/03 09:50:13;;;;;;;18.50;4.65;;;;;;;8.85;100.00;102479.25;4685670;30;20058;-64
2023/02/03 09:52:43;;;;;;;14.45;3.65;;;;;;;8.89;100.00;102468.75;4685986;30;20420;-65
2023/02/03 09:55:38;;;;;;;14.10;3.75;;;;;;;8.89;100.00;102475.03;4700481;30;20058;-64
2023/02/03 09:58:11;;;;;;;15.77;4.07;;;;;;;8.90;100.00;102454.13;4671867;30;20125;-65
2023/02/03 10:00:45;;;;;;;18.13;3.72;;;;;;;8.91;100.00;102459.34;4702461;30;20057;-66
2023/02/03 10:03:20;;;;;;;18.60;4.32;;;;;;;8.91;100.00;102467.50;4717477;30;20057;-65
2023/02/03 10:06:09;;;;;;;17.38;4.40;;;;;;;8.95;100.00;102457.88;4688710;30;20061;-65
2023/02/03 10:08:53;;;;;;;18.33;4.60;;;;;;;8.96;100.00;102472.28;4721010;30;20055;-65
2023/02/03 10:11:44;;;;;;;13.40;3.53;;;;;;;8.98;100.00;102475.63;4706843;30;20136;-65
2023/02/03 10:14:40;;;;;;;14.07;4.28;;;;;;;9.00;100.00;102469.97;4706593;30;20061;-65
2023/02/03 10:17:25;;;;;;;14.45;3.95;;;;;;;9.01;100.00;102480.63;4712752;30;20080;-65
2023/02/03 10:20:03;;;;;;;17.20;4.55;;;;;;;9.04;100.00;102476.63;4711658;30;20502;-64
2023/02/03 10:22:33;;;;;;;16.38;4.10;;;;;;;9.05;100.00;102481.88;4724566;30;20657;-65
2023/02/03 10:25:13;;;;;;;17.48;5.35;;;;;;;9.07;100.00;102492.53;4719881;30;20061;-64
2023/02/03 10:27:43;;;;;;;15.50;3.75;;;;;;;9.08;100.00;102481.44;4702354;30;20049;-63
2023/02/03 10:30:23;;;;;;;14.35;4.10;;;;;;;9.13;100.00;102476.16;4702538;30;20048;-65
2023/02/03 10:32:55;;;;;;;19.30;4.18;;;;;;;9.12;100.00;102490.00;4702603;30;20426;-64
2023/02/03 10:35:32;;;;;;;18.38;4.15;;;;;;;9.12;100.00;102500.88;4713657;30;20050;-64
2023/02/03 10:37:59;;;;;;;19.05;4.63;;;;;;;9.14;100.00;102488.72;4699498;30;20092;-64
2023/02/03 10:40:27;;;;;;;18.75;4.03;;;;;;;9.15;100.00;102505.88;4700786;30;20054;-64
2023/02/03 10:45:42;;;;;;;;;;;;;;;9.17;100.00;102484.72;4690255;30;20060;-65
2023/02/03 10:48:15;;;;;;;16.40;4.50;;;;;;;9.17;100.00;102492.91;4717829;30;19926;-65
2023/02/03 10:50:47;;;;;;;18.33;4.55;;;;;;;9.19;100.00;102496.22;4688143;30;20078;-65
2023/02/03 10:53:45;;;;;;;18.88;4.97;;;;;;;9.20;100.00;102492.44;4702363;30;20064;-63
2023/02/03 10:56:16;;;;;;;16.42;4.38;;;;;;;9.20;100.00;102503.31;4700425;30;20080;-64
2023/02/03 10:58:52;;;;;;;17.92;4.40;;;;;;;9.22;100.00;102495.78;4717239;30;20049;-64
2023/02/03 11:01:41;;;;;;;14.60;3.90;;;;;;;9.25;100.00;102498.06;4717515;30;20049;-65
2023/02/03 11:04:30;;;;;;;17.05;4.05;;;;;;;9.25;100.00;102503.50;4707389;30;20053;-66
2023/02/03 11:07:00;;;;;;;12.18;3.55;;;;;;;9.26;100.00;102507.91;4727155;30;20075;-65
2023/02/03 11:09:32;;;;;;;12.90;4.40;;;;;;;9.28;100.00;102502.22;4721867;30;20053;-65
2023/02/03 11:12:13;;;;;;;16.17;4.00;;;;;;;9.29;100.00;102512.06;4720898;30;20100;-65
2023/02/03 11:14:46;;;;;;;17.23;4.53;;;;;;;9.30;100.00;102517.28;4695825;30;20057;-66
2023/02/03 11:17:18;;;;;;;15.20;3.95;;;;;;;9.30;100.00;102508.28;4726225;30;20096;-67
2023/02/03 11:19:48;;;;;;;18.00;4.75;;;;;;;9.31;100.00;102509.97;4720298;30;20111;-66
2023/02/03 11:22:48;;;;;;;16.65;4.30;;;;;;;9.32;100.00;102509.75;4717637;30;20053;-65
2023/02/03 11:25:25;;;;;;;14.02;4.20;;;;;;;9.36;100.00;102502.81;4693674;30;20424;-65
2023/02/03 11:27:55;;;;;;;16.17;4.38;;;;;;;9.38;100.00;102500.72;4703818;30;20093;-65
2023/02/03 11:30:28;;;;;;;13.45;3.83;;;;;;;9.39;100.00;102501.56;4702571;30;20085;-64
2023/02/03 11:33:00;;;;;;;15.55;3.90;;;;;;;9.38;100.00;102502.63;4702944;30;20419;-65
2023/02/03 11:35:30;;;;;;;17.60;3.75;;;;;;;9.39;100.00;102512.44;4716561;30;20522;-64
2023/02/03 11:38:00;;;;;;;15.48;3.70;;;;;;;9.39;100.00;102513.25;4705390;30;20156;-64